createdAt,value
2023-04-02T00:01:46.848Z,87.71
2023-04-02T00:04:13.483Z,87.64
2023-04-02T00:06:40.434Z,87.60
2023-04-02T00:09:07.169Z,87.45
2023-04-02T00:11:33.532Z,87.57
2023-04-02T00:14:01.538Z,87.60
2023-04-02T00:16:27.913Z,87.73
2023-04-02T00:18:54.276Z,87.62
2023-04-02T00:21:20.636Z,87.63
2023-04-02T00:23:47.006Z,87.58
2023-04-02T00:26:13.591Z,87.62
2023-04-02T00:28:39.949Z,87.47
2023-04-02T00:31:06.298Z,87.51
2023-04-02T00:33:32.659Z,87.62
2023-04-02T00:35:59.271Z,87.78
2023-04-02T00:38:25.643Z,87.74
2023-04-02T00:40:52.219Z,87.49
2023-04-02T00:43:18.577Z,87.74
2023-04-02T00:45:45.151Z,87.62
2023-04-02T00:48:11.558Z,87.59
2023-04-02T00:50:37.942Z,87.54
2023-04-02T00:53:04.300Z,87.68
2023-04-02T00:55:30.645Z,87.76
2023-04-02T00:57:57.206Z,87.53
2023-04-02T01:00:23.546Z,87.44
2023-04-02T01:02:50.089Z,87.63
2023-04-02T01:05:16.652Z,87.69
2023-04-02T01:07:43.677Z,87.68
2023-04-02T01:10:10.007Z,87.78
2023-04-02T01:12:36.445Z,87.65
2023-04-02T01:15:02.794Z,87.70
2023-04-02T01:17:29.173Z,87.62
2023-04-02T01:19:58.648Z,87.68
2023-04-02T01:22:25.045Z,87.89
2023-04-02T01:24:51.425Z,87.74
2023-04-02T01:27:17.782Z,87.49
2023-04-02T01:29:44.135Z,87.64
2023-04-02T01:32:10.723Z,87.73
2023-04-02T01:34:37.092Z,87.52
2023-04-02T01:37:03.448Z,87.67
2023-04-02T01:39:29.813Z,87.68
2023-04-02T01:41:56.367Z,87.69
2023-04-02T01:44:22.720Z,87.80
2023-04-02T01:46:49.199Z,87.88
2023-04-02T01:49:15.646Z,87.92
2023-04-02T01:51:41.985Z,87.95
2023-04-02T01:54:08.311Z,87.77
2023-04-02T01:56:34.669Z,87.71
2023-04-02T01:59:01.015Z,87.77
2023-04-02T02:01:27.363Z,87.84
2023-04-02T02:03:53.695Z,87.89
2023-04-02T02:06:20.058Z,87.90
2023-04-02T02:08:46.418Z,87.81
2023-04-02T02:11:12.973Z,87.60
2023-04-02T02:13:41.563Z,87.80
2023-04-02T02:16:08.426Z,87.77
2023-04-02T02:18:34.818Z,87.79
2023-04-02T02:21:01.188Z,88.11
2023-04-02T02:23:27.548Z,87.60
2023-04-02T02:25:53.901Z,87.66
2023-04-02T02:28:20.252Z,87.99
2023-04-02T02:30:46.583Z,87.82
2023-04-02T02:33:12.930Z,87.67
2023-04-02T02:35:39.382Z,87.95
2023-04-02T02:38:05.772Z,87.51
2023-04-02T02:40:32.109Z,87.72
2023-04-02T02:42:58.461Z,87.69
2023-04-02T02:45:24.809Z,87.91
2023-04-02T02:47:51.379Z,87.74
2023-04-02T02:50:17.727Z,87.83
2023-04-02T02:52:44.077Z,87.91
2023-04-02T02:55:10.455Z,87.93
2023-04-02T02:57:36.787Z,87.81
2023-04-02T03:00:03.139Z,87.79
2023-04-02T03:02:29.639Z,87.88
2023-04-02T03:04:56.062Z,87.67
2023-04-02T03:07:22.422Z,87.84
2023-04-02T03:09:48.750Z,87.81
2023-04-02T03:12:15.105Z,87.77
2023-04-02T03:14:41.509Z,87.95
2023-04-02T03:17:07.831Z,87.78
2023-04-02T03:19:34.183Z,87.77
2023-04-02T03:22:00.546Z,87.89
2023-04-02T03:24:26.908Z,87.84
2023-04-02T03:26:53.269Z,88.00
2023-04-02T03:29:19.613Z,87.86
2023-04-02T03:31:46.074Z,87.78
2023-04-02T03:34:12.441Z,87.82
2023-04-02T03:36:38.809Z,87.69
2023-04-02T03:39:05.152Z,87.52
2023-04-02T03:41:32.218Z,87.74
2023-04-02T03:43:58.561Z,87.70
2023-04-02T03:46:25.189Z,87.77
2023-04-02T03:48:51.563Z,87.77
2023-04-02T03:51:17.901Z,87.83
2023-04-02T03:53:44.267Z,87.71
2023-04-02T03:56:10.653Z,87.92
2023-04-02T03:58:36.992Z,87.73
2023-04-02T04:01:03.333Z,87.79
2023-04-02T04:03:29.661Z,88.00
2023-04-02T04:05:55.984Z,87.81
2023-04-02T04:08:22.335Z,87.78
2023-04-02T04:10:48.704Z,87.83
2023-04-02T04:13:15.106Z,87.86
2023-04-02T04:15:41.482Z,87.76
2023-04-02T04:18:08.061Z,87.92
2023-04-02T04:20:34.459Z,88.03
2023-04-02T04:23:00.832Z,87.71
2023-04-02T04:25:27.205Z,88.15
2023-04-02T04:27:53.558Z,87.99
2023-04-02T04:30:19.916Z,87.98
2023-04-02T04:32:46.325Z,88.11
2023-04-02T04:35:12.731Z,87.95
2023-04-02T04:37:39.562Z,88.13
2023-04-02T04:40:07.423Z,87.99
2023-04-02T04:42:33.783Z,87.89
2023-04-02T04:45:00.173Z,87.94
2023-04-02T04:47:26.576Z,87.87
2023-04-02T04:49:52.942Z,87.87
2023-04-02T04:52:19.278Z,87.93
2023-04-02T04:54:45.647Z,87.90
2023-04-02T04:57:12.243Z,87.91
2023-04-02T04:59:38.605Z,87.73
2023-04-02T05:02:04.944Z,87.82
2023-04-02T05:04:31.323Z,87.98
2023-04-02T05:06:57.714Z,88.18
2023-04-02T05:09:24.068Z,88.19
2023-04-02T05:11:50.416Z,88.08
2023-04-02T05:14:16.735Z,87.80
2023-04-02T05:16:43.064Z,87.76
2023-04-02T05:19:09.614Z,88.06
2023-04-02T05:21:36.172Z,88.03
2023-04-02T05:24:02.516Z,88.12
2023-04-02T05:26:28.860Z,88.00
2023-04-02T05:28:55.190Z,88.14
2023-04-02T05:31:21.611Z,87.93
2023-04-02T05:33:47.972Z,87.73
2023-04-02T05:36:14.402Z,87.86
2023-04-02T05:38:40.821Z,87.97
2023-04-02T05:41:07.158Z,87.84
2023-04-02T05:43:33.740Z,88.18
2023-04-02T05:46:00.118Z,88.08
2023-04-02T05:48:26.468Z,88.15
2023-04-02T05:50:52.827Z,87.82
2023-04-02T05:53:19.167Z,87.88
2023-04-02T05:55:45.496Z,88.05
2023-04-02T05:58:31.896Z,87.92
2023-04-02T06:00:58.378Z,87.95
2023-04-02T06:03:24.842Z,87.70
2023-04-02T06:05:51.337Z,87.85
2023-04-02T06:08:17.677Z,87.96
2023-04-02T06:10:44.030Z,87.92
2023-04-02T06:13:10.402Z,87.82
2023-04-02T06:15:36.878Z,88.19
2023-04-02T06:18:03.479Z,88.47
2023-04-02T06:20:29.925Z,87.99
2023-04-02T06:22:56.267Z,87.74
2023-04-02T06:25:22.614Z,87.66
2023-04-02T06:27:48.944Z,87.85
2023-04-02T06:30:15.298Z,87.68
2023-04-02T06:32:41.648Z,87.60
2023-04-02T06:35:08.004Z,87.73
2023-04-02T06:37:34.361Z,87.50
2023-04-02T06:40:00.715Z,87.84
2023-04-02T06:42:27.271Z,87.78
2023-04-02T06:44:53.839Z,87.51
2023-04-02T06:47:21.062Z,87.59
2023-04-02T06:49:47.391Z,87.50
2023-04-02T06:52:13.754Z,87.76
2023-04-02T06:54:40.128Z,87.87
2023-04-02T06:57:06.739Z,87.49
2023-04-02T06:59:33.123Z,87.79
2023-04-02T07:01:59.748Z,87.77
2023-04-02T07:04:26.144Z,87.81
2023-04-02T07:06:52.515Z,87.76
2023-04-02T07:09:18.887Z,87.82
2023-04-02T07:11:45.256Z,87.42
2023-04-02T07:14:11.611Z,87.73
2023-04-02T07:16:37.951Z,87.79
2023-04-02T07:19:04.312Z,87.70
2023-04-02T07:21:30.696Z,87.85
2023-04-02T07:23:57.037Z,87.85
2023-04-02T07:26:23.361Z,87.84
2023-04-02T07:28:49.689Z,87.75
2023-04-02T07:31:16.088Z,87.86
2023-04-02T07:33:42.471Z,88.02
2023-04-02T07:36:08.867Z,87.79
2023-04-02T07:38:35.239Z,87.89
2023-04-02T07:41:01.580Z,88.02
2023-04-02T07:43:28.229Z,88.11
2023-04-02T07:45:54.784Z,88.14
2023-04-02T07:48:21.345Z,87.96
2023-04-02T07:50:47.706Z,88.03
2023-04-02T07:53:14.261Z,87.81
2023-04-02T07:55:40.580Z,87.79
2023-04-02T07:58:06.926Z,88.05
2023-04-02T08:00:33.261Z,88.22
2023-04-02T08:02:59.665Z,88.10
2023-04-02T08:05:26.070Z,88.09
2023-04-02T08:07:52.404Z,88.15
2023-04-02T08:10:18.761Z,87.94
2023-04-02T08:12:46.075Z,87.81
2023-04-02T08:15:12.432Z,87.71
2023-04-02T08:17:39.088Z,87.91
2023-04-02T08:20:05.488Z,87.92
2023-04-02T08:22:31.835Z,87.80
2023-04-02T08:24:58.343Z,87.91
2023-04-02T08:27:24.673Z,87.95
2023-04-02T08:29:51.018Z,88.24
2023-04-02T08:32:17.370Z,88.47
2023-04-02T08:34:43.743Z,88.26
2023-04-02T08:37:10.302Z,87.91
2023-04-02T08:39:36.655Z,87.82
2023-04-02T08:42:03.018Z,87.76
2023-04-02T08:44:29.479Z,87.71
2023-04-02T08:46:55.834Z,88.03
2023-04-02T08:49:22.169Z,87.98
2023-04-02T08:51:48.502Z,87.72
2023-04-02T08:54:14.847Z,87.84
2023-04-02T08:56:41.184Z,87.87
2023-04-02T08:59:07.557Z,88.21
2023-04-02T09:01:33.963Z,88.19
2023-04-02T09:04:00.545Z,87.89
2023-04-02T09:06:27.109Z,87.72
2023-04-02T09:08:53.450Z,87.58
2023-04-02T09:11:20.484Z,87.74
2023-04-02T09:13:46.846Z,87.97
2023-04-02T09:16:13.214Z,87.89
2023-04-02T09:18:40.120Z,87.83
2023-04-02T09:21:06.492Z,87.60
2023-04-02T09:23:32.814Z,87.98
2023-04-02T09:26:04.631Z,87.68
2023-04-02T09:28:31.275Z,87.73
2023-04-02T09:30:57.856Z,87.77
2023-04-02T09:33:24.397Z,87.91
2023-04-02T09:35:50.760Z,88.06
2023-04-02T09:38:17.369Z,87.87
2023-04-02T09:40:43.975Z,87.87
2023-04-02T09:43:10.551Z,87.84
2023-04-02T09:45:37.080Z,87.80
2023-04-02T09:48:03.604Z,87.88
2023-04-02T09:50:30.016Z,87.95
2023-04-02T09:52:59.552Z,88.04
2023-04-02T09:55:26.111Z,87.92
2023-04-02T09:57:52.649Z,87.92
2023-04-02T10:00:30.498Z,87.94
2023-04-02T10:02:58.389Z,88.01
2023-04-02T10:05:39.405Z,88.14
2023-04-02T10:08:07.188Z,88.01
2023-04-02T10:10:33.762Z,87.90
2023-04-02T10:13:00.321Z,87.78
2023-04-02T10:15:26.650Z,87.84
2023-04-02T10:17:53.034Z,87.75
2023-04-02T10:20:19.367Z,87.91
2023-04-02T10:22:45.752Z,87.84
2023-04-02T10:25:12.105Z,87.82
2023-04-02T10:27:38.465Z,87.84
2023-04-02T10:30:04.842Z,87.88
2023-04-02T10:32:32.023Z,87.71
2023-04-02T10:34:58.419Z,87.83
2023-04-02T10:37:24.966Z,87.95
2023-04-02T10:39:51.532Z,87.86
2023-04-02T10:42:17.895Z,87.83
2023-04-02T10:44:44.993Z,87.87
2023-04-02T10:47:11.348Z,87.82
2023-04-02T10:49:37.775Z,87.77
2023-04-02T10:52:04.174Z,87.76
2023-04-02T10:54:30.524Z,87.71
2023-04-02T10:56:56.889Z,87.70
2023-04-02T10:59:23.468Z,87.71
2023-04-02T11:01:49.881Z,87.73
2023-04-02T11:04:16.968Z,87.80
2023-04-02T11:06:43.319Z,87.82
2023-04-02T11:09:09.862Z,87.67
2023-04-02T11:11:36.182Z,87.89
2023-04-02T11:14:02.559Z,87.87
2023-04-02T11:16:29.009Z,87.92
2023-04-02T11:18:55.420Z,87.89
2023-04-02T11:21:21.770Z,87.82
2023-04-02T11:23:48.127Z,87.67
2023-04-02T11:26:14.697Z,87.77
2023-04-02T11:28:41.233Z,87.75
2023-04-02T11:31:07.602Z,87.74
2023-04-02T11:36:03.250Z,87.81
2023-04-02T11:38:30.457Z,87.82
2023-04-02T11:40:56.812Z,87.77
2023-04-02T11:43:23.162Z,87.73
2023-04-02T11:45:53.470Z,87.75
2023-04-02T11:48:20.053Z,87.77
2023-04-02T11:50:46.746Z,87.77
2023-04-02T11:53:13.251Z,87.77
2023-04-02T11:55:40.096Z,87.19
2023-04-02T11:58:06.488Z,86.87
2023-04-02T12:00:32.846Z,87.50
2023-04-02T12:02:59.504Z,87.59
2023-04-02T12:05:26.175Z,87.59
2023-04-02T12:07:52.624Z,87.23
2023-04-02T12:10:19.018Z,87.41
2023-04-02T12:12:45.370Z,87.39
2023-04-02T12:15:11.737Z,87.48
2023-04-02T12:17:38.134Z,87.35
2023-04-02T12:20:05.938Z,87.18
2023-04-02T12:22:32.428Z,87.45
2023-04-02T12:24:58.781Z,87.49
2023-04-02T12:27:25.084Z,87.55
2023-04-02T12:29:51.422Z,87.85
2023-04-02T12:32:17.778Z,87.80
2023-04-02T12:34:44.122Z,87.70
2023-04-02T12:37:10.455Z,87.76
2023-04-02T12:39:36.787Z,87.80
2023-04-02T12:42:03.121Z,87.72
2023-04-02T12:44:29.688Z,87.95
2023-04-02T12:46:56.071Z,87.74
2023-04-02T12:49:22.642Z,87.62
2023-04-02T12:51:49.018Z,87.79
2023-04-02T12:54:16.114Z,87.87
2023-04-02T12:56:42.478Z,88.00
2023-04-02T12:59:09.043Z,87.60
2023-04-02T13:01:35.435Z,87.73
2023-04-02T13:04:01.927Z,87.74
2023-04-02T13:06:28.312Z,87.55
2023-04-02T13:08:54.666Z,87.67
2023-04-02T13:11:21.026Z,87.69
2023-04-02T13:13:47.395Z,87.56
2023-04-02T13:16:14.046Z,87.40
2023-04-02T13:18:40.476Z,87.71
2023-04-02T13:21:06.822Z,87.72
2023-04-02T13:23:33.185Z,87.59
2023-04-02T13:25:59.858Z,87.71
2023-04-02T13:28:26.254Z,87.85
2023-04-02T13:30:52.866Z,87.82
2023-04-02T13:33:19.232Z,87.69
2023-04-02T13:35:45.912Z,87.76
2023-04-02T13:38:12.343Z,87.82
2023-04-02T13:40:38.682Z,87.77
2023-04-02T13:43:05.086Z,87.77
2023-04-02T13:45:31.664Z,87.85
2023-04-02T13:47:58.302Z,87.84
2023-04-02T13:50:24.729Z,87.83
2023-04-02T13:52:51.354Z,87.86
2023-04-02T13:55:17.726Z,87.81
2023-04-02T13:57:44.084Z,87.79
2023-04-02T14:00:10.424Z,87.72
2023-04-02T14:02:37.013Z,87.77
2023-04-02T14:05:03.370Z,87.66
2023-04-02T14:07:29.943Z,87.77
2023-04-02T14:09:56.272Z,87.64
2023-04-02T14:12:22.604Z,87.69
2023-04-02T14:14:48.962Z,87.28
2023-04-02T14:17:15.311Z,86.85
2023-04-02T14:19:41.654Z,86.93
2023-04-02T14:22:08.211Z,87.26
2023-04-02T14:24:34.563Z,87.10
2023-04-02T14:27:00.899Z,87.64
2023-04-02T14:29:28.879Z,87.38
2023-04-02T14:31:55.917Z,87.12
2023-04-02T14:34:22.513Z,87.10
2023-04-02T14:36:48.860Z,86.70
2023-04-02T14:39:15.203Z,86.90
2023-04-02T14:41:41.755Z,86.97
2023-04-02T14:44:08.100Z,86.95
2023-04-02T14:46:36.866Z,86.85
2023-04-02T14:49:03.768Z,86.84
2023-04-02T14:51:30.124Z,86.80
2023-04-02T14:53:56.476Z,86.81
2023-04-02T14:56:22.825Z,87.00
2023-04-02T14:58:49.153Z,86.87
2023-04-02T15:01:15.540Z,86.67
2023-04-02T15:03:42.188Z,86.74
2023-04-02T15:06:08.598Z,86.59
2023-04-02T15:08:34.946Z,86.51
2023-04-02T15:11:05.006Z,86.48
2023-04-02T15:13:33.064Z,86.49
2023-04-02T15:15:59.469Z,86.57
2023-04-02T15:18:25.829Z,86.43
2023-04-02T15:20:52.161Z,86.33
2023-04-02T15:23:18.530Z,86.30
2023-04-02T15:25:44.863Z,86.46
2023-04-02T15:28:11.188Z,86.37
2023-04-02T15:30:37.911Z,86.46
2023-04-02T15:33:04.789Z,86.28
2023-04-02T15:35:31.167Z,86.18
2023-04-02T15:37:57.506Z,86.20
2023-04-02T15:40:23.837Z,86.18
2023-04-02T15:42:50.193Z,86.06
2023-04-02T15:45:16.570Z,86.27
2023-04-02T15:47:42.955Z,86.45
2023-04-02T15:50:09.287Z,86.43
2023-04-02T15:52:35.896Z,86.43
2023-04-02T15:55:02.232Z,86.32
2023-04-02T15:57:28.635Z,86.25
2023-04-02T15:59:55.209Z,86.25
2023-04-02T16:02:21.544Z,86.18
2023-04-02T16:04:48.118Z,86.01
2023-04-02T16:07:14.455Z,85.99
2023-04-02T16:09:40.798Z,86.12
2023-04-02T16:12:07.134Z,85.99
2023-04-02T16:14:33.863Z,86.08
2023-04-02T16:17:03.829Z,85.84
2023-04-02T16:19:34.539Z,85.94
2023-04-02T16:22:00.892Z,86.03
2023-04-02T16:24:27.444Z,86.00
2023-04-02T16:26:53.780Z,86.02
2023-04-02T16:29:20.154Z,86.13
2023-04-02T16:31:46.498Z,86.62
2023-04-02T16:34:13.054Z,86.79
2023-04-02T16:36:39.407Z,86.51
2023-04-02T16:39:05.970Z,86.46
2023-04-02T16:41:32.349Z,86.62
2023-04-02T16:43:58.701Z,86.36
2023-04-02T16:46:36.320Z,86.48
2023-04-02T16:49:06.443Z,86.35
2023-04-02T16:51:33.802Z,86.37
2023-04-02T16:54:02.321Z,86.32
2023-04-02T16:56:28.934Z,86.32
2023-04-02T16:58:55.300Z,86.26
2023-04-02T17:01:21.630Z,86.29
2023-04-02T17:03:48.142Z,86.77
2023-04-02T17:06:14.574Z,86.54
2023-04-02T17:08:40.917Z,86.76
2023-04-02T17:11:07.255Z,86.71
2023-04-02T17:13:34.183Z,86.94
2023-04-02T17:16:01.011Z,86.72
2023-04-02T17:18:27.392Z,86.73
2023-04-02T17:20:53.768Z,86.57
2023-04-02T17:23:20.158Z,86.69
2023-04-02T17:25:46.694Z,86.55
2023-04-02T17:28:13.073Z,86.63
2023-04-02T17:30:39.417Z,86.67
2023-04-02T17:33:05.835Z,86.71
2023-04-02T17:35:32.335Z,86.80
2023-04-02T17:37:58.942Z,86.70
2023-04-02T17:40:25.286Z,86.78
2023-04-02T17:42:51.646Z,86.95
2023-04-02T17:45:18.023Z,86.83
2023-04-02T17:47:44.375Z,87.00
2023-04-02T17:50:10.769Z,87.03
2023-04-02T17:52:37.101Z,86.90
2023-04-02T17:55:03.459Z,86.99
2023-04-02T17:57:30.084Z,86.90
2023-04-02T17:59:56.536Z,86.95
2023-04-02T18:02:22.929Z,86.94
2023-04-02T18:04:49.286Z,86.97
2023-04-02T18:07:15.657Z,86.92
2023-04-02T18:09:42.007Z,86.94
2023-04-02T18:12:08.589Z,86.98
2023-04-02T18:14:34.933Z,86.94
2023-04-02T18:17:01.867Z,86.85
2023-04-02T18:19:30.480Z,86.95
2023-04-02T18:21:57.608Z,86.92
2023-04-02T18:24:24.133Z,86.95
2023-04-02T18:26:50.698Z,86.95
2023-04-02T18:29:17.052Z,86.99
2023-04-02T18:31:43.408Z,87.06
2023-04-02T18:34:09.975Z,87.03
2023-04-02T18:36:36.324Z,86.95
2023-04-02T18:39:02.612Z,86.95
2023-04-02T18:41:28.978Z,86.97
2023-04-02T18:43:57.419Z,86.96
2023-04-02T18:46:23.960Z,87.03
2023-04-02T18:48:50.385Z,87.05
2023-04-02T18:51:16.728Z,87.00
2023-04-02T18:53:43.067Z,86.98
2023-04-02T18:56:11.444Z,87.08
2023-04-02T18:58:38.348Z,87.06
2023-04-02T19:01:04.766Z,86.96
2023-04-02T19:03:31.235Z,87.05
2023-04-02T19:05:57.663Z,87.13
2023-04-02T19:08:24.009Z,87.14
2023-04-02T19:10:50.357Z,87.14
2023-04-02T19:13:16.704Z,87.11
2023-04-02T19:15:43.072Z,87.07
2023-04-02T19:18:09.424Z,87.14
2023-04-02T19:20:35.939Z,87.13
2023-04-02T19:23:02.432Z,87.13
2023-04-02T19:25:28.754Z,87.14
2023-04-02T19:27:55.325Z,87.13
2023-04-02T19:30:21.685Z,87.14
2023-04-02T19:32:48.305Z,87.18
2023-04-02T19:35:14.644Z,87.19
2023-04-02T19:37:41.002Z,87.05
2023-04-02T19:40:07.344Z,87.12
2023-04-02T19:42:33.917Z,87.12
2023-04-02T19:45:00.265Z,87.05
2023-04-02T19:47:26.639Z,87.09
2023-04-02T19:49:53.009Z,86.95
2023-04-02T19:52:19.357Z,87.33
2023-04-02T19:54:45.741Z,87.15
2023-04-02T19:57:12.126Z,87.01
2023-04-02T19:59:38.725Z,87.15
2023-04-02T20:02:05.068Z,87.26
2023-04-02T20:04:31.497Z,87.10
2023-04-02T20:06:57.884Z,86.98
2023-04-02T20:09:24.247Z,86.90
2023-04-02T20:11:50.599Z,86.95
2023-04-02T20:14:16.994Z,87.11
2023-04-02T20:16:44.614Z,87.27
2023-04-02T20:19:12.108Z,87.12
2023-04-02T20:21:38.689Z,87.01
2023-04-02T20:24:05.168Z,87.01
2023-04-02T20:26:31.513Z,87.17
2023-04-02T20:28:58.052Z,87.21
2023-04-02T20:31:24.463Z,87.09
2023-04-02T20:33:50.928Z,86.88
2023-04-02T20:36:17.336Z,86.99
2023-04-02T20:38:43.686Z,87.00
2023-04-02T20:41:10.034Z,87.17
2023-04-02T20:43:36.394Z,87.10
2023-04-02T20:46:02.994Z,87.09
2023-04-02T20:48:29.359Z,87.09
2023-04-02T20:50:55.690Z,87.13
2023-04-02T20:53:22.012Z,87.13
2023-04-02T20:55:48.349Z,87.20
2023-04-02T20:58:14.717Z,87.21
2023-04-02T21:00:41.078Z,87.17
2023-04-02T21:03:07.442Z,87.01
2023-04-02T21:05:33.834Z,86.74
2023-04-02T21:08:00.227Z,86.89
2023-04-02T21:10:26.559Z,86.95
2023-04-02T21:12:52.936Z,86.89
2023-04-02T21:15:19.326Z,86.98
2023-04-02T21:17:45.754Z,86.78
2023-04-02T21:20:12.575Z,86.70
2023-04-02T21:22:39.104Z,86.62
2023-04-02T21:25:05.481Z,86.76
2023-04-02T21:27:31.849Z,86.79
2023-04-02T21:29:58.205Z,86.82
2023-04-02T21:32:24.614Z,86.84
2023-04-02T21:34:50.994Z,86.67
2023-04-02T21:37:17.378Z,86.73
2023-04-02T21:39:43.717Z,86.86
2023-04-02T21:42:10.043Z,86.81
2023-04-02T21:44:36.416Z,86.61
2023-04-02T21:47:02.790Z,86.34
2023-04-02T21:49:29.163Z,86.94
2023-04-02T21:51:55.514Z,87.15
2023-04-02T21:54:21.857Z,87.08
2023-04-02T21:56:48.691Z,86.91
2023-04-02T21:59:15.289Z,86.94
2023-04-02T22:01:41.945Z,86.80
2023-04-02T22:04:08.545Z,87.71
2023-04-02T22:06:34.906Z,86.70
2023-04-02T22:09:01.513Z,87.68
2023-04-02T22:11:28.099Z,87.94
2023-04-02T22:13:54.674Z,87.83
2023-04-02T22:16:21.139Z,87.54
2023-04-02T22:18:47.546Z,86.95
2023-04-02T22:21:13.899Z,87.71
2023-04-02T22:23:40.491Z,87.73
2023-04-02T22:26:06.837Z,87.84
2023-04-02T22:28:33.169Z,87.95
2023-04-02T22:30:59.541Z,87.77
2023-04-02T22:33:25.885Z,88.13
2023-04-02T22:35:52.297Z,87.86
2023-04-02T22:38:18.681Z,88.02
2023-04-02T22:40:45.029Z,88.20
2023-04-02T22:43:11.355Z,86.70
2023-04-02T22:45:37.698Z,88.06
2023-04-02T22:48:04.089Z,88.09
2023-04-02T22:50:30.454Z,88.00
2023-04-02T22:52:56.776Z,88.61
2023-04-02T22:55:23.320Z,88.17
2023-04-02T22:57:49.692Z,88.32
2023-04-02T23:00:16.033Z,88.37
2023-04-02T23:02:42.442Z,88.18
2023-04-02T23:05:08.871Z,88.37
2023-04-02T23:07:35.451Z,88.32
2023-04-02T23:10:03.828Z,88.51
2023-04-02T23:12:31.000Z,88.76
2023-04-02T23:14:57.374Z,88.81
2023-04-02T23:17:23.736Z,88.57
2023-04-02T23:19:50.136Z,88.18
2023-04-02T23:22:16.732Z,88.41
2023-04-02T23:24:43.073Z,88.69
2023-04-02T23:27:09.429Z,88.35
2023-04-02T23:29:35.756Z,88.76
2023-04-02T23:32:02.111Z,88.86
2023-04-02T23:34:28.445Z,88.70
2023-04-02T23:36:54.799Z,88.49
2023-04-02T23:39:21.154Z,88.87
2023-04-02T23:41:47.503Z,89.07
2023-04-02T23:44:14.066Z,88.70
2023-04-02T23:46:40.436Z,89.11
2023-04-02T23:49:06.779Z,88.89
2023-04-02T23:51:33.234Z,88.66
2023-04-02T23:53:59.821Z,89.14
2023-04-02T23:56:26.388Z,89.23
2023-04-02T23:58:52.975Z,89.40
